Aviation Digital Data Service (ADDS)

Output produced by METARs form (0746 UTC 25 October 2014)
found at http://www.aviationweather.gov/adds/metars/
 
SEGU 250700Z 22007KT 9999 FEW010 SCT023 BKN100 22/20 Q1013 NOSIG RMK A2992
SEGU 250420Z 2512/2612 22008KT 9999 SCT020 BKN100 
     FM251200 20007KT 9999 BKN020 BKN100 
     FM251800 15008KT 9999 SCT030 BKN100 
     FM260000 23010KT 9999 FEW020 SCT100 TX30/2520Z TN22/2510Z
       
SEMT 250700Z 19011KT 9999 BKN020 23/21 Q1013
SEMT 250420Z 2512/2612 18006KT 9999 OVC020 
     FM251600 30010KT 9999 SCT023 SCT090 
     FM260300 18005KT 9999 OVC020 TX29/2519Z TN22/2510Z